Terminal Aerodrome Forecast
Issued by NWS Albuquerque, NM

Home | Current Version | Previous Version | Text Only | Print | Product List | Glossary On
Versions: 1 2 3 4 5 6 7 8 9 10 11 12 13 14 15
000
FTUS45 KABQ 310539
TAFABQ
TAF
KABQ 310539Z 3106/0106 VRB05KT P6SM SCT120 SCT200
      TEMPO 3106/3109 35010KT
     FM312000 25008KT P6SM SCT090 SCT150
     FM010100 VRB06KT P6SM VCSH SCT090 BKN120=

USA.gov is the U.S. government's official web portal to all federal, state and local government web resources and services.